sensor_id;sensor_type;location;lat;lon;timestamp;P1;durP1;ratioP1;P2;durP2;ratioP2
65971;SDS011;52726;48.852;9.152;2023-04-24T00:01:14;0.70;;;0.70;;
65971;SDS011;52726;48.852;9.152;2023-04-24T00:03:40;0.60;;;0.52;;
65971;SDS011;52726;48.852;9.152;2023-04-24T00:06:06;1.60;;;0.60;;
65971;SDS011;52726;48.852;9.152;2023-04-24T00:08:33;1.50;;;0.77;;
65971;SDS011;52726;48.852;9.152;2023-04-24T00:10:58;3.50;;;0.75;;
65971;SDS011;52726;48.852;9.152;2023-04-24T00:13:24;1.40;;;0.63;;
65971;SDS011;52726;48.852;9.152;2023-04-24T00:15:49;0.82;;;0.80;;
65971;SDS011;52726;48.852;9.152;2023-04-24T00:18:15;0.52;;;0.52;;
65971;SDS011;52726;48.852;9.152;2023-04-24T00:20:40;1.13;;;1.02;;
65971;SDS011;52726;48.852;9.152;2023-04-24T00:23:05;2.15;;;0.70;;
65971;SDS011;52726;48.852;9.152;2023-04-24T00:25:31;0.40;;;0.40;;
65971;SDS011;52726;48.852;9.152;2023-04-24T00:27:56;0.75;;;0.63;;
65971;SDS011;52726;48.852;9.152;2023-04-24T00:30:22;2.72;;;0.90;;
65971;SDS011;52726;48.852;9.152;2023-04-24T00:32:47;3.42;;;0.70;;
65971;SDS011;52726;48.852;9.152;2023-04-24T00:35:12;0.80;;;0.63;;
65971;SDS011;52726;48.852;9.152;2023-04-24T00:37:38;1.15;;;0.70;;
65971;SDS011;52726;48.852;9.152;2023-04-24T00:40:03;0.52;;;0.52;;
65971;SDS011;52726;48.852;9.152;2023-04-24T00:42:29;0.77;;;0.60;;
65971;SDS011;52726;48.852;9.152;2023-04-24T00:44:55;2.28;;;0.60;;
65971;SDS011;52726;48.852;9.152;2023-04-24T00:47:21;1.40;;;0.60;;
65971;SDS011;52726;48.852;9.152;2023-04-24T00:49:47;0.95;;;0.63;;
65971;SDS011;52726;48.852;9.152;2023-04-24T00:52:12;0.75;;;0.75;;
65971;SDS011;52726;48.852;9.152;2023-04-24T00:54:43;1.10;;;0.57;;
65971;SDS011;52726;48.852;9.152;2023-04-24T00:57:10;1.02;;;0.70;;
65971;SDS011;52726;48.852;9.152;2023-04-24T00:59:35;0.85;;;0.80;;
65971;SDS011;52726;48.852;9.152;2023-04-24T01:02:01;0.50;;;0.50;;
65971;SDS011;52726;48.852;9.152;2023-04-24T01:04:27;1.60;;;0.70;;
65971;SDS011;52726;48.852;9.152;2023-04-24T01:06:52;0.68;;;0.68;;
65971;SDS011;52726;48.852;9.152;2023-04-24T01:09:19;3.45;;;0.60;;
65971;SDS011;52726;48.852;9.152;2023-04-24T01:11:48;2.75;;;0.50;;
65971;SDS011;52726;48.852;9.152;2023-04-24T01:14:13;0.50;;;0.50;;
65971;SDS011;52726;48.852;9.152;2023-04-24T01:16:39;0.93;;;0.77;;
65971;SDS011;52726;48.852;9.152;2023-04-24T01:19:05;0.55;;;0.40;;
65971;SDS011;52726;48.852;9.152;2023-04-24T01:21:31;0.55;;;0.55;;
65971;SDS011;52726;48.852;9.152;2023-04-24T01:24:00;1.05;;;0.60;;
65971;SDS011;52726;48.852;9.152;2023-04-24T01:26:26;0.47;;;0.47;;
65971;SDS011;52726;48.852;9.152;2023-04-24T01:28:52;0.40;;;0.40;;
65971;SDS011;52726;48.852;9.152;2023-04-24T01:31:18;0.93;;;0.50;;
65971;SDS011;52726;48.852;9.152;2023-04-24T01:33:43;0.73;;;0.63;;
65971;SDS011;52726;48.852;9.152;2023-04-24T01:36:10;0.75;;;0.75;;
65971;SDS011;52726;48.852;9.152;2023-04-24T01:38:36;0.52;;;0.52;;
65971;SDS011;52726;48.852;9.152;2023-04-24T01:41:02;0.50;;;0.50;;
65971;SDS011;52726;48.852;9.152;2023-04-24T01:43:28;0.98;;;0.60;;
65971;SDS011;52726;48.852;9.152;2023-04-24T01:45:53;0.73;;;0.47;;
65971;SDS011;52726;48.852;9.152;2023-04-24T01:48:19;0.98;;;0.68;;
65971;SDS011;52726;48.852;9.152;2023-04-24T01:50:44;2.40;;;0.80;;
65971;SDS011;52726;48.852;9.152;2023-04-24T01:53:10;1.73;;;0.77;;
65971;SDS011;52726;48.852;9.152;2023-04-24T01:55:36;0.75;;;0.50;;
65971;SDS011;52726;48.852;9.152;2023-04-24T01:58:01;0.45;;;0.45;;
65971;SDS011;52726;48.852;9.152;2023-04-24T02:00:27;1.10;;;0.50;;
65971;SDS011;52726;48.852;9.152;2023-04-24T02:02:52;1.00;;;0.73;;
65971;SDS011;52726;48.852;9.152;2023-04-24T02:05:17;1.98;;;0.73;;
65971;SDS011;52726;48.852;9.152;2023-04-24T02:07:43;1.92;;;0.60;;
65971;SDS011;52726;48.852;9.152;2023-04-24T02:10:09;1.13;;;0.50;;
65971;SDS011;52726;48.852;9.152;2023-04-24T02:12:34;0.47;;;0.47;;
65971;SDS011;52726;48.852;9.152;2023-04-24T02:15:00;1.20;;;0.70;;
65971;SDS011;52726;48.852;9.152;2023-04-24T02:17:25;0.47;;;0.47;;
65971;SDS011;52726;48.852;9.152;2023-04-24T02:19:51;1.05;;;0.90;;
65971;SDS011;52726;48.852;9.152;2023-04-24T02:22:16;0.80;;;0.70;;
65971;SDS011;52726;48.852;9.152;2023-04-24T02:24:41;1.70;;;0.60;;
65971;SDS011;52726;48.852;9.152;2023-04-24T02:27:07;1.00;;;0.60;;
65971;SDS011;52726;48.852;9.152;2023-04-24T02:29:32;0.60;;;0.60;;
65971;SDS011;52726;48.852;9.152;2023-04-24T02:31:58;0.63;;;0.60;;
65971;SDS011;52726;48.852;9.152;2023-04-24T02:34:23;0.50;;;0.50;;
65971;SDS011;52726;48.852;9.152;2023-04-24T02:36:48;0.50;;;0.50;;
65971;SDS011;52726;48.852;9.152;2023-04-24T02:39:14;0.38;;;0.38;;
65971;SDS011;52726;48.852;9.152;2023-04-24T02:41:41;3.25;;;0.68;;
65971;SDS011;52726;48.852;9.152;2023-04-24T02:44:07;0.50;;;0.50;;
65971;SDS011;52726;48.852;9.152;2023-04-24T02:46:32;2.13;;;0.70;;
65971;SDS011;52726;48.852;9.152;2023-04-24T02:48:58;0.65;;;0.50;;
65971;SDS011;52726;48.852;9.152;2023-04-24T02:51:23;1.60;;;0.75;;
65971;SDS011;52726;48.852;9.152;2023-04-24T02:53:48;0.70;;;0.70;;
65971;SDS011;52726;48.852;9.152;2023-04-24T02:56:13;1.42;;;0.43;;
65971;SDS011;52726;48.852;9.152;2023-04-24T02:58:39;1.05;;;0.80;;
65971;SDS011;52726;48.852;9.152;2023-04-24T03:01:04;1.00;;;0.80;;
65971;SDS011;52726;48.852;9.152;2023-04-24T03:03:30;1.60;;;0.60;;
65971;SDS011;52726;48.852;9.152;2023-04-24T03:05:55;2.47;;;0.77;;
65971;SDS011;52726;48.852;9.152;2023-04-24T03:08:22;0.57;;;0.57;;
65971;SDS011;52726;48.852;9.152;2023-04-24T03:10:47;2.28;;;0.50;;
65971;SDS011;52726;48.852;9.152;2023-04-24T03:13:12;1.40;;;0.70;;
65971;SDS011;52726;48.852;9.152;2023-04-24T03:15:38;0.77;;;0.70;;
65971;SDS011;52726;48.852;9.152;2023-04-24T03:18:03;0.47;;;0.47;;
65971;SDS011;52726;48.852;9.152;2023-04-24T03:20:28;1.33;;;0.75;;
65971;SDS011;52726;48.852;9.152;2023-04-24T03:22:54;0.60;;;0.60;;
65971;SDS011;52726;48.852;9.152;2023-04-24T03:25:19;1.95;;;1.20;;
65971;SDS011;52726;48.852;9.152;2023-04-24T03:27:45;0.60;;;0.50;;
65971;SDS011;52726;48.852;9.152;2023-04-24T03:30:11;1.65;;;0.68;;
65971;SDS011;52726;48.852;9.152;2023-04-24T03:32:36;0.65;;;0.60;;
65971;SDS011;52726;48.852;9.152;2023-04-24T03:35:02;1.23;;;0.90;;
65971;SDS011;52726;48.852;9.152;2023-04-24T03:37:28;2.33;;;1.30;;
65971;SDS011;52726;48.852;9.152;2023-04-24T03:39:53;2.08;;;1.38;;
65971;SDS011;52726;48.852;9.152;2023-04-24T03:42:19;3.50;;;2.00;;
65971;SDS011;52726;48.852;9.152;2023-04-24T03:44:45;5.28;;;2.70;;
65971;SDS011;52726;48.852;9.152;2023-04-24T03:47:10;3.35;;;2.40;;
65971;SDS011;52726;48.852;9.152;2023-04-24T03:49:35;4.18;;;2.65;;
65971;SDS011;52726;48.852;9.152;2023-04-24T03:52:01;1.80;;;1.55;;
65971;SDS011;52726;48.852;9.152;2023-04-24T03:54:26;1.73;;;0.73;;
65971;SDS011;52726;48.852;9.152;2023-04-24T03:56:51;1.23;;;0.50;;
65971;SDS011;52726;48.852;9.152;2023-04-24T03:59:17;3.08;;;0.90;;
65971;SDS011;52726;48.852;9.152;2023-04-24T04:01:42;1.02;;;0.85;;
65971;SDS011;52726;48.852;9.152;2023-04-24T04:04:07;2.25;;;0.77;;
65971;SDS011;52726;48.852;9.152;2023-04-24T04:06:33;0.60;;;0.60;;
65971;SDS011;52726;48.852;9.152;2023-04-24T04:08:58;0.75;;;0.70;;
65971;SDS011;52726;48.852;9.152;2023-04-24T04:11:24;1.65;;;0.90;;
65971;SDS011;52726;48.852;9.152;2023-04-24T04:13:50;0.70;;;0.70;;
65971;SDS011;52726;48.852;9.152;2023-04-24T04:16:15;0.50;;;0.50;;
65971;SDS011;52726;48.852;9.152;2023-04-24T04:18:42;2.88;;;1.25;;
65971;SDS011;52726;48.852;9.152;2023-04-24T04:21:08;0.52;;;0.52;;
65971;SDS011;52726;48.852;9.152;2023-04-24T04:23:33;4.15;;;0.55;;
65971;SDS011;52726;48.852;9.152;2023-04-24T04:25:58;0.40;;;0.40;;
65971;SDS011;52726;48.852;9.152;2023-04-24T04:28:24;2.72;;;0.73;;
65971;SDS011;52726;48.852;9.152;2023-04-24T04:30:50;0.60;;;0.60;;
65971;SDS011;52726;48.852;9.152;2023-04-24T04:33:19;0.60;;;0.60;;
65971;SDS011;52726;48.852;9.152;2023-04-24T04:35:45;2.28;;;0.60;;
65971;SDS011;52726;48.852;9.152;2023-04-24T04:38:14;1.02;;;0.95;;
65971;SDS011;52726;48.852;9.152;2023-04-24T04:40:40;1.52;;;0.90;;
65971;SDS011;52726;48.852;9.152;2023-04-24T04:43:05;0.68;;;0.68;;
65971;SDS011;52726;48.852;9.152;2023-04-24T04:45:31;1.10;;;1.00;;
65971;SDS011;52726;48.852;9.152;2023-04-24T04:47:57;1.10;;;0.98;;
65971;SDS011;52726;48.852;9.152;2023-04-24T04:50:25;2.40;;;1.35;;
65971;SDS011;52726;48.852;9.152;2023-04-24T04:52:51;1.52;;;0.70;;
65971;SDS011;52726;48.852;9.152;2023-04-24T04:55:17;0.88;;;0.85;;
65971;SDS011;52726;48.852;9.152;2023-04-24T04:57:43;0.70;;;0.70;;
65971;SDS011;52726;48.852;9.152;2023-04-24T05:00:08;2.70;;;1.20;;
65971;SDS011;52726;48.852;9.152;2023-04-24T05:02:35;0.90;;;0.70;;
65971;SDS011;52726;48.852;9.152;2023-04-24T05:05:00;3.25;;;1.10;;
65971;SDS011;52726;48.852;9.152;2023-04-24T05:07:26;0.88;;;0.88;;
65971;SDS011;52726;48.852;9.152;2023-04-24T05:09:51;0.90;;;0.90;;
65971;SDS011;52726;48.852;9.152;2023-04-24T05:12:17;0.98;;;0.98;;
65971;SDS011;52726;48.852;9.152;2023-04-24T05:14:42;1.77;;;1.20;;
65971;SDS011;52726;48.852;9.152;2023-04-24T05:17:07;3.90;;;1.20;;
65971;SDS011;52726;48.852;9.152;2023-04-24T05:19:33;1.60;;;1.10;;
65971;SDS011;52726;48.852;9.152;2023-04-24T05:22:00;0.70;;;0.70;;
65971;SDS011;52726;48.852;9.152;2023-04-24T05:24:28;1.27;;;0.88;;
65971;SDS011;52726;48.852;9.152;2023-04-24T05:26:53;2.40;;;1.10;;
65971;SDS011;52726;48.852;9.152;2023-04-24T05:29:18;2.45;;;1.00;;
65971;SDS011;52726;48.852;9.152;2023-04-24T05:31:44;1.13;;;1.02;;
65971;SDS011;52726;48.852;9.152;2023-04-24T05:34:09;1.15;;;0.95;;
65971;SDS011;52726;48.852;9.152;2023-04-24T05:36:35;0.82;;;0.82;;
65971;SDS011;52726;48.852;9.152;2023-04-24T05:39:00;1.95;;;1.20;;
65971;SDS011;52726;48.852;9.152;2023-04-24T05:41:25;2.90;;;1.20;;
65971;SDS011;52726;48.852;9.152;2023-04-24T05:43:51;1.65;;;1.08;;
65971;SDS011;52726;48.852;9.152;2023-04-24T05:46:16;3.17;;;1.05;;
65971;SDS011;52726;48.852;9.152;2023-04-24T05:48:41;1.25;;;1.00;;
65971;SDS011;52726;48.852;9.152;2023-04-24T05:51:07;0.82;;;0.82;;
65971;SDS011;52726;48.852;9.152;2023-04-24T05:53:34;1.10;;;0.90;;
65971;SDS011;52726;48.852;9.152;2023-04-24T05:55:59;7.63;;;1.10;;
65971;SDS011;52726;48.852;9.152;2023-04-24T05:58:25;1.02;;;0.80;;
65971;SDS011;52726;48.852;9.152;2023-04-24T06:00:50;0.75;;;0.75;;
65971;SDS011;52726;48.852;9.152;2023-04-24T06:03:16;1.02;;;0.93;;
65971;SDS011;52726;48.852;9.152;2023-04-24T06:05:41;1.60;;;1.00;;
65971;SDS011;52726;48.852;9.152;2023-04-24T06:08:06;1.40;;;1.17;;
65971;SDS011;52726;48.852;9.152;2023-04-24T06:10:32;1.30;;;1.20;;
65971;SDS011;52726;48.852;9.152;2023-04-24T06:12:57;1.65;;;0.90;;
65971;SDS011;52726;48.852;9.152;2023-04-24T06:15:26;1.17;;;1.15;;
65971;SDS011;52726;48.852;9.152;2023-04-24T06:17:53;1.33;;;1.20;;
65971;SDS011;52726;48.852;9.152;2023-04-24T06:20:18;1.60;;;1.35;;
65971;SDS011;52726;48.852;9.152;2023-04-24T06:22:44;1.77;;;1.42;;
65971;SDS011;52726;48.852;9.152;2023-04-24T06:25:09;1.55;;;1.33;;
65971;SDS011;52726;48.852;9.152;2023-04-24T06:27:35;1.23;;;1.08;;
65971;SDS011;52726;48.852;9.152;2023-04-24T06:30:00;1.95;;;1.48;;
65971;SDS011;52726;48.852;9.152;2023-04-24T06:32:26;1.55;;;1.40;;
65971;SDS011;52726;48.852;9.152;2023-04-24T06:34:52;2.28;;;1.55;;
65971;SDS011;52726;48.852;9.152;2023-04-24T06:37:18;1.55;;;1.42;;
65971;SDS011;52726;48.852;9.152;2023-04-24T06:39:45;2.05;;;1.30;;
65971;SDS011;52726;48.852;9.152;2023-04-24T06:42:11;1.23;;;1.15;;
65971;SDS011;52726;48.852;9.152;2023-04-24T06:44:36;1.45;;;1.00;;
65971;SDS011;52726;48.852;9.152;2023-04-24T06:47:06;1.30;;;1.20;;
65971;SDS011;52726;48.852;9.152;2023-04-24T06:49:32;3.13;;;1.58;;
65971;SDS011;52726;48.852;9.152;2023-04-24T06:51:58;1.50;;;1.30;;
65971;SDS011;52726;48.852;9.152;2023-04-24T06:54:23;8.95;;;1.33;;
65971;SDS011;52726;48.852;9.152;2023-04-24T06:56:48;2.40;;;1.23;;
65971;SDS011;52726;48.852;9.152;2023-04-24T06:59:15;1.95;;;1.20;;
65971;SDS011;52726;48.852;9.152;2023-04-24T07:01:41;1.70;;;1.10;;
65971;SDS011;52726;48.852;9.152;2023-04-24T07:04:06;1.20;;;1.10;;
65971;SDS011;52726;48.852;9.152;2023-04-24T07:06:31;1.38;;;1.20;;
65971;SDS011;52726;48.852;9.152;2023-04-24T07:08:57;1.60;;;1.50;;
65971;SDS011;52726;48.852;9.152;2023-04-24T07:11:23;1.13;;;0.90;;
65971;SDS011;52726;48.852;9.152;2023-04-24T07:13:48;1.38;;;1.20;;
65971;SDS011;52726;48.852;9.152;2023-04-24T07:16:14;1.92;;;1.20;;
65971;SDS011;52726;48.852;9.152;2023-04-24T07:18:40;1.02;;;1.00;;
65971;SDS011;52726;48.852;9.152;2023-04-24T07:21:05;1.42;;;1.33;;
65971;SDS011;52726;48.852;9.152;2023-04-24T07:23:32;1.08;;;1.00;;
65971;SDS011;52726;48.852;9.152;2023-04-24T07:25:57;5.07;;;1.10;;
65971;SDS011;52726;48.852;9.152;2023-04-24T07:28:22;1.73;;;1.40;;
65971;SDS011;52726;48.852;9.152;2023-04-24T07:30:48;1.35;;;1.10;;
65971;SDS011;52726;48.852;9.152;2023-04-24T07:33:13;1.02;;;1.00;;
65971;SDS011;52726;48.852;9.152;2023-04-24T07:35:38;1.30;;;1.10;;
65971;SDS011;52726;48.852;9.152;2023-04-24T07:38:04;1.52;;;1.20;;
65971;SDS011;52726;48.852;9.152;2023-04-24T07:40:29;1.20;;;1.10;;
65971;SDS011;52726;48.852;9.152;2023-04-24T07:42:55;1.50;;;1.35;;
65971;SDS011;52726;48.852;9.152;2023-04-24T07:45:20;1.48;;;1.10;;
65971;SDS011;52726;48.852;9.152;2023-04-24T07:47:45;1.13;;;0.93;;
65971;SDS011;52726;48.852;9.152;2023-04-24T07:50:11;1.00;;;0.90;;
65971;SDS011;52726;48.852;9.152;2023-04-24T07:52:38;2.60;;;0.73;;
65971;SDS011;52726;48.852;9.152;2023-04-24T07:55:04;4.45;;;1.23;;
65971;SDS011;52726;48.852;9.152;2023-04-24T07:57:29;1.20;;;1.05;;
65971;SDS011;52726;48.852;9.152;2023-04-24T07:59:55;0.80;;;0.80;;
65971;SDS011;52726;48.852;9.152;2023-04-24T08:02:20;1.00;;;1.00;;
65971;SDS011;52726;48.852;9.152;2023-04-24T08:04:51;0.80;;;0.80;;
65971;SDS011;52726;48.852;9.152;2023-04-24T08:07:16;2.03;;;1.00;;
65971;SDS011;52726;48.852;9.152;2023-04-24T08:09:42;4.50;;;1.35;;
65971;SDS011;52726;48.852;9.152;2023-04-24T08:12:07;2.53;;;1.20;;
65971;SDS011;52726;48.852;9.152;2023-04-24T08:14:32;2.03;;;1.13;;
65971;SDS011;52726;48.852;9.152;2023-04-24T08:16:58;0.70;;;0.70;;
65971;SDS011;52726;48.852;9.152;2023-04-24T08:19:25;0.85;;;0.77;;
65971;SDS011;52726;48.852;9.152;2023-04-24T08:21:50;1.00;;;1.00;;
65971;SDS011;52726;48.852;9.152;2023-04-24T08:24:16;0.43;;;0.43;;
65971;SDS011;52726;48.852;9.152;2023-04-24T08:26:41;1.60;;;0.98;;
65971;SDS011;52726;48.852;9.152;2023-04-24T08:29:07;1.33;;;1.10;;
65971;SDS011;52726;48.852;9.152;2023-04-24T08:31:33;4.88;;;0.90;;
65971;SDS011;52726;48.852;9.152;2023-04-24T08:33:58;3.30;;;0.85;;
65971;SDS011;52726;48.852;9.152;2023-04-24T08:36:24;2.55;;;1.33;;
65971;SDS011;52726;48.852;9.152;2023-04-24T08:38:50;1.30;;;0.95;;
65971;SDS011;52726;48.852;9.152;2023-04-24T08:41:16;1.67;;;1.05;;
65971;SDS011;52726;48.852;9.152;2023-04-24T08:43:43;2.00;;;1.10;;
65971;SDS011;52726;48.852;9.152;2023-04-24T08:46:11;1.35;;;1.17;;
65971;SDS011;52726;48.852;9.152;2023-04-24T08:48:38;3.50;;;1.02;;
65971;SDS011;52726;48.852;9.152;2023-04-24T08:51:05;1.20;;;1.05;;
65971;SDS011;52726;48.852;9.152;2023-04-24T08:53:32;1.35;;;0.70;;
65971;SDS011;52726;48.852;9.152;2023-04-24T08:55:58;0.85;;;0.85;;
65971;SDS011;52726;48.852;9.152;2023-04-24T08:58:26;2.95;;;1.05;;
65971;SDS011;52726;48.852;9.152;2023-04-24T09:00:56;0.70;;;0.70;;
65971;SDS011;52726;48.852;9.152;2023-04-24T09:03:23;1.75;;;0.90;;
65971;SDS011;52726;48.852;9.152;2023-04-24T09:05:49;1.02;;;0.90;;
65971;SDS011;52726;48.852;9.152;2023-04-24T09:08:19;0.80;;;0.77;;
65971;SDS011;52726;48.852;9.152;2023-04-24T09:10:45;1.58;;;0.95;;
65971;SDS011;52726;48.852;9.152;2023-04-24T09:13:10;0.93;;;0.80;;
65971;SDS011;52726;48.852;9.152;2023-04-24T09:15:37;1.05;;;0.98;;
65971;SDS011;52726;48.852;9.152;2023-04-24T09:18:03;1.30;;;0.85;;
65971;SDS011;52726;48.852;9.152;2023-04-24T09:20:29;1.08;;;1.08;;
65971;SDS011;52726;48.852;9.152;2023-04-24T09:22:56;1.65;;;0.70;;
65971;SDS011;52726;48.852;9.152;2023-04-24T09:25:22;1.95;;;0.90;;
65971;SDS011;52726;48.852;9.152;2023-04-24T09:27:53;0.80;;;0.80;;
65971;SDS011;52726;48.852;9.152;2023-04-24T09:30:22;0.73;;;0.73;;
65971;SDS011;52726;48.852;9.152;2023-04-24T09:32:48;1.05;;;0.93;;
65971;SDS011;52726;48.852;9.152;2023-04-24T09:35:14;1.48;;;1.00;;
65971;SDS011;52726;48.852;9.152;2023-04-24T09:37:45;1.20;;;1.10;;
65971;SDS011;52726;48.852;9.152;2023-04-24T09:42:38;0.90;;;0.90;;
65971;SDS011;52726;48.852;9.152;2023-04-24T09:45:04;1.20;;;1.13;;
65971;SDS011;52726;48.852;9.152;2023-04-24T09:47:37;1.13;;;0.90;;
65971;SDS011;52726;48.852;9.152;2023-04-24T09:50:13;3.42;;;0.90;;
65971;SDS011;52726;48.852;9.152;2023-04-24T09:52:46;3.97;;;1.15;;
65971;SDS011;52726;48.852;9.152;2023-04-24T09:55:20;0.70;;;0.70;;
65971;SDS011;52726;48.852;9.152;2023-04-24T09:57:53;1.02;;;0.73;;
65971;SDS011;52726;48.852;9.152;2023-04-24T10:00:24;0.68;;;0.68;;
65971;SDS011;52726;48.852;9.152;2023-04-24T10:02:54;2.20;;;1.00;;
65971;SDS011;52726;48.852;9.152;2023-04-24T10:05:28;2.25;;;0.88;;
65971;SDS011;52726;48.852;9.152;2023-04-24T10:07:56;1.38;;;0.90;;
65971;SDS011;52726;48.852;9.152;2023-04-24T10:10:22;1.13;;;1.02;;
65971;SDS011;52726;48.852;9.152;2023-04-24T10:12:47;0.80;;;0.80;;
65971;SDS011;52726;48.852;9.152;2023-04-24T10:15:14;1.40;;;0.90;;
65971;SDS011;52726;48.852;9.152;2023-04-24T10:17:41;0.95;;;0.90;;
65971;SDS011;52726;48.852;9.152;2023-04-24T10:20:07;1.80;;;0.90;;
65971;SDS011;52726;48.852;9.152;2023-04-24T10:22:33;0.77;;;0.77;;
65971;SDS011;52726;48.852;9.152;2023-04-24T10:24:59;0.73;;;0.73;;
65971;SDS011;52726;48.852;9.152;2023-04-24T10:27:24;1.00;;;0.90;;
65971;SDS011;52726;48.852;9.152;2023-04-24T10:29:52;1.27;;;1.17;;
65971;SDS011;52726;48.852;9.152;2023-04-24T10:32:18;2.42;;;1.15;;
65971;SDS011;52726;48.852;9.152;2023-04-24T10:34:43;4.35;;;0.93;;
65971;SDS011;52726;48.852;9.152;2023-04-24T10:37:09;1.50;;;1.40;;
65971;SDS011;52726;48.852;9.152;2023-04-24T10:39:35;0.90;;;0.90;;
65971;SDS011;52726;48.852;9.152;2023-04-24T10:42:02;2.85;;;1.40;;
65971;SDS011;52726;48.852;9.152;2023-04-24T10:44:40;3.03;;;1.08;;
65971;SDS011;52726;48.852;9.152;2023-04-24T10:47:05;1.35;;;0.73;;
65971;SDS011;52726;48.852;9.152;2023-04-24T10:49:38;1.48;;;1.00;;
65971;SDS011;52726;48.852;9.152;2023-04-24T10:52:04;0.88;;;0.88;;
65971;SDS011;52726;48.852;9.152;2023-04-24T10:54:44;1.10;;;1.00;;
65971;SDS011;52726;48.852;9.152;2023-04-24T10:59:51;1.30;;;1.15;;
65971;SDS011;52726;48.852;9.152;2023-04-24T11:02:37;1.85;;;1.10;;
65971;SDS011;52726;48.852;9.152;2023-04-24T11:05:05;0.57;;;0.57;;
65971;SDS011;52726;48.852;9.152;2023-04-24T11:10:37;0.80;;;0.80;;
65971;SDS011;52726;48.852;9.152;2023-04-24T11:13:03;0.80;;;0.80;;
65971;SDS011;52726;48.852;9.152;2023-04-24T11:15:29;1.05;;;1.00;;
65971;SDS011;52726;48.852;9.152;2023-04-24T11:17:55;0.77;;;0.77;;
65971;SDS011;52726;48.852;9.152;2023-04-24T11:20:22;0.88;;;0.88;;
65971;SDS011;52726;48.852;9.152;2023-04-24T11:22:48;2.38;;;0.88;;
65971;SDS011;52726;48.852;9.152;2023-04-24T11:25:18;1.20;;;1.10;;
65971;SDS011;52726;48.852;9.152;2023-04-24T11:27:43;1.67;;;1.05;;
65971;SDS011;52726;48.852;9.152;2023-04-24T11:30:11;1.63;;;1.50;;
65971;SDS011;52726;48.852;9.152;2023-04-24T11:32:37;1.30;;;1.20;;
65971;SDS011;52726;48.852;9.152;2023-04-24T11:35:17;1.10;;;1.05;;
65971;SDS011;52726;48.852;9.152;2023-04-24T11:37:44;1.00;;;1.00;;
65971;SDS011;52726;48.852;9.152;2023-04-24T11:40:11;2.30;;;1.00;;
65971;SDS011;52726;48.852;9.152;2023-04-24T11:42:41;1.65;;;1.02;;
65971;SDS011;52726;48.852;9.152;2023-04-24T11:45:15;2.60;;;0.90;;
65971;SDS011;52726;48.852;9.152;2023-04-24T11:47:42;0.80;;;0.80;;
65971;SDS011;52726;48.852;9.152;2023-04-24T11:50:10;2.38;;;1.17;;
65971;SDS011;52726;48.852;9.152;2023-04-24T11:52:39;0.70;;;0.70;;
65971;SDS011;52726;48.852;9.152;2023-04-24T11:57:41;1.00;;;0.90;;
65971;SDS011;52726;48.852;9.152;2023-04-24T12:00:14;1.13;;;1.02;;
65971;SDS011;52726;48.852;9.152;2023-04-24T12:05:06;1.00;;;1.00;;
65971;SDS011;52726;48.852;9.152;2023-04-24T12:07:32;0.98;;;0.88;;
65971;SDS011;52726;48.852;9.152;2023-04-24T12:10:07;1.98;;;0.93;;
65971;SDS011;52726;48.852;9.152;2023-04-24T12:12:34;1.00;;;0.90;;
65971;SDS011;52726;48.852;9.152;2023-04-24T12:15:01;3.30;;;1.20;;
65971;SDS011;52726;48.852;9.152;2023-04-24T12:17:31;2.33;;;1.10;;
65971;SDS011;52726;48.852;9.152;2023-04-24T12:20:02;0.90;;;0.90;;
65971;SDS011;52726;48.852;9.152;2023-04-24T12:22:42;2.10;;;1.25;;
65971;SDS011;52726;48.852;9.152;2023-04-24T12:25:10;0.80;;;0.75;;
65971;SDS011;52726;48.852;9.152;2023-04-24T12:27:36;1.10;;;0.82;;
65971;SDS011;52726;48.852;9.152;2023-04-24T12:30:03;0.80;;;0.80;;
65971;SDS011;52726;48.852;9.152;2023-04-24T12:32:30;1.65;;;1.00;;
65971;SDS011;52726;48.852;9.152;2023-04-24T12:34:56;0.80;;;0.80;;
65971;SDS011;52726;48.852;9.152;2023-04-24T12:37:25;1.67;;;1.17;;
65971;SDS011;52726;48.852;9.152;2023-04-24T12:40:06;2.45;;;1.20;;
65971;SDS011;52726;48.852;9.152;2023-04-24T12:42:34;2.60;;;0.85;;
65971;SDS011;52726;48.852;9.152;2023-04-24T12:45:04;4.95;;;0.80;;
65971;SDS011;52726;48.852;9.152;2023-04-24T12:47:31;1.42;;;1.10;;
65971;SDS011;52726;48.852;9.152;2023-04-24T12:49:57;3.22;;;1.10;;
65971;SDS011;52726;48.852;9.152;2023-04-24T12:52:23;1.60;;;1.50;;
65971;SDS011;52726;48.852;9.152;2023-04-24T12:54:50;1.00;;;1.00;;
65971;SDS011;52726;48.852;9.152;2023-04-24T12:57:16;0.60;;;0.60;;
65971;SDS011;52726;48.852;9.152;2023-04-24T12:59:42;1.33;;;1.20;;
65971;SDS011;52726;48.852;9.152;2023-04-24T13:02:07;1.58;;;1.08;;
65971;SDS011;52726;48.852;9.152;2023-04-24T13:04:34;0.95;;;0.95;;
65971;SDS011;52726;48.852;9.152;2023-04-24T13:07:01;1.60;;;1.10;;
65971;SDS011;52726;48.852;9.152;2023-04-24T13:09:27;0.90;;;0.90;;
65971;SDS011;52726;48.852;9.152;2023-04-24T13:11:52;2.08;;;1.00;;
65971;SDS011;52726;48.852;9.152;2023-04-24T13:14:17;2.25;;;1.30;;
65971;SDS011;52726;48.852;9.152;2023-04-24T13:16:43;2.05;;;1.10;;
65971;SDS011;52726;48.852;9.152;2023-04-24T13:19:08;1.27;;;1.17;;
65971;SDS011;52726;48.852;9.152;2023-04-24T13:21:33;1.85;;;1.38;;
65971;SDS011;52726;48.852;9.152;2023-04-24T13:23:59;1.48;;;1.30;;
65971;SDS011;52726;48.852;9.152;2023-04-24T13:26:24;1.10;;;1.10;;
65971;SDS011;52726;48.852;9.152;2023-04-24T13:28:50;1.30;;;1.20;;
65971;SDS011;52726;48.852;9.152;2023-04-24T13:31:15;1.73;;;1.60;;
65971;SDS011;52726;48.852;9.152;2023-04-24T13:33:41;1.75;;;1.30;;
65971;SDS011;52726;48.852;9.152;2023-04-24T13:36:06;1.60;;;1.50;;
65971;SDS011;52726;48.852;9.152;2023-04-24T13:38:31;2.97;;;1.33;;
65971;SDS011;52726;48.852;9.152;2023-04-24T13:40:57;3.20;;;1.52;;
65971;SDS011;52726;48.852;9.152;2023-04-24T13:43:22;1.30;;;1.20;;
65971;SDS011;52726;48.852;9.152;2023-04-24T13:45:47;3.60;;;1.52;;
65971;SDS011;52726;48.852;9.152;2023-04-24T13:48:13;1.58;;;1.25;;
65971;SDS011;52726;48.852;9.152;2023-04-24T13:50:40;1.63;;;1.35;;
65971;SDS011;52726;48.852;9.152;2023-04-24T13:53:09;1.15;;;1.15;;
65971;SDS011;52726;48.852;9.152;2023-04-24T13:55:35;1.10;;;1.00;;
65971;SDS011;52726;48.852;9.152;2023-04-24T13:58:01;1.05;;;0.95;;
65971;SDS011;52726;48.852;9.152;2023-04-24T14:00:26;1.88;;;1.10;;
65971;SDS011;52726;48.852;9.152;2023-04-24T14:02:52;1.10;;;1.00;;
65971;SDS011;52726;48.852;9.152;2023-04-24T14:05:17;1.77;;;1.27;;
65971;SDS011;52726;48.852;9.152;2023-04-24T14:07:43;1.20;;;1.10;;
65971;SDS011;52726;48.852;9.152;2023-04-24T14:10:08;1.23;;;1.15;;
65971;SDS011;52726;48.852;9.152;2023-04-24T14:12:34;1.42;;;1.33;;
65971;SDS011;52726;48.852;9.152;2023-04-24T14:15:00;1.55;;;1.13;;
65971;SDS011;52726;48.852;9.152;2023-04-24T14:17:26;1.35;;;1.23;;
65971;SDS011;52726;48.852;9.152;2023-04-24T14:19:51;2.35;;;1.13;;
65971;SDS011;52726;48.852;9.152;2023-04-24T14:22:17;1.30;;;1.20;;
65971;SDS011;52726;48.852;9.152;2023-04-24T14:24:42;1.02;;;1.02;;
65971;SDS011;52726;48.852;9.152;2023-04-24T14:27:08;5.95;;;1.48;;
65971;SDS011;52726;48.852;9.152;2023-04-24T14:29:33;2.17;;;1.55;;
65971;SDS011;52726;48.852;9.152;2023-04-24T14:31:59;1.20;;;1.10;;
65971;SDS011;52726;48.852;9.152;2023-04-24T14:34:24;1.52;;;1.35;;
65971;SDS011;52726;48.852;9.152;2023-04-24T14:36:49;1.30;;;1.20;;
65971;SDS011;52726;48.852;9.152;2023-04-24T14:39:15;2.30;;;1.25;;
65971;SDS011;52726;48.852;9.152;2023-04-24T14:41:40;2.15;;;1.38;;
65971;SDS011;52726;48.852;9.152;2023-04-24T14:44:05;1.88;;;1.77;;
65971;SDS011;52726;48.852;9.152;2023-04-24T14:46:31;1.40;;;1.30;;
65971;SDS011;52726;48.852;9.152;2023-04-24T14:48:56;3.65;;;1.30;;
65971;SDS011;52726;48.852;9.152;2023-04-24T14:51:22;1.30;;;1.20;;
65971;SDS011;52726;48.852;9.152;2023-04-24T14:53:47;0.95;;;0.95;;
65971;SDS011;52726;48.852;9.152;2023-04-24T14:56:13;1.30;;;1.20;;